createdAt,value
2023-05-19T00:11:45.798Z,54.17
2023-05-19T00:41:45.814Z,54.87
2023-05-19T01:11:45.838Z,55.26
2023-05-19T01:41:45.823Z,55.62
2023-05-19T02:11:45.812Z,56.18
2023-05-19T02:41:45.822Z,56.8
2023-05-19T03:11:45.818Z,56.79
2023-05-19T03:41:45.826Z,56.65
2023-05-19T04:11:45.838Z,56.63
2023-05-19T04:41:45.861Z,56.75
2023-05-19T05:11:45.874Z,56.82
2023-05-19T05:41:45.858Z,56.87
2023-05-19T06:11:45.861Z,56.83
2023-05-19T06:41:45.870Z,56.39
2023-05-19T07:11:45.878Z,55.99
2023-05-19T07:41:45.864Z,55.38
2023-05-19T08:11:45.865Z,55.38
2023-05-19T08:41:45.874Z,54.63
2023-05-19T09:11:45.875Z,54.42
2023-05-19T09:41:45.891Z,53.69
2023-05-19T10:11:45.898Z,52.9
2023-05-19T10:41:47.026Z,51.95
2023-05-19T11:11:45.915Z,51.42
2023-05-19T11:41:45.895Z,51.17
2023-05-19T12:11:45.894Z,49.9
2023-05-19T12:41:45.903Z,49.41
2023-05-19T13:11:45.913Z,47.47
2023-05-19T13:41:45.929Z,46.66
2023-05-19T14:11:45.956Z,45.93
2023-05-19T14:41:45.927Z,46.69
2023-05-19T15:11:46.052Z,46.34
2023-05-19T15:41:45.935Z,46.58
2023-05-19T16:11:45.940Z,47.26
2023-05-19T16:41:45.941Z,47.05
2023-05-19T17:11:45.946Z,44.34
2023-05-19T17:41:45.961Z,47.61
2023-05-19T18:11:45.958Z,48.58
2023-05-19T18:41:45.985Z,49.14
2023-05-19T19:11:45.969Z,50.03
2023-05-19T19:41:45.968Z,50.95
2023-05-19T20:11:45.980Z,52.06
2023-05-19T20:41:46.011Z,52.94
2023-05-19T21:11:46.005Z,53.99
2023-05-19T21:41:46.008Z,54.69
2023-05-19T22:11:46.006Z,55.55
2023-05-19T22:41:46.007Z,56.2
2023-05-19T23:11:46.019Z,56.63
2023-05-19T23:41:46.018Z,57.17
